sensor_id;sensor_type;location;lat;lon;timestamp;temperature;humidity
25688;DHT22;17407;51.120;3.702;2023-07-20T00:01:15;18.20;99.90
25688;DHT22;17407;51.120;3.702;2023-07-20T00:03:41;18.20;99.90
25688;DHT22;17407;51.120;3.702;2023-07-20T00:06:07;18.10;99.90
25688;DHT22;17407;51.120;3.702;2023-07-20T00:08:33;18.00;99.90
25688;DHT22;17407;51.120;3.702;2023-07-20T00:10:59;17.90;99.90
25688;DHT22;17407;51.120;3.702;2023-07-20T00:13:25;17.90;99.90
25688;DHT22;17407;51.120;3.702;2023-07-20T00:15:51;17.80;99.90
25688;DHT22;17407;51.120;3.702;2023-07-20T00:18:17;17.80;99.90
25688;DHT22;17407;51.120;3.702;2023-07-20T00:20:43;17.70;99.90
25688;DHT22;17407;51.120;3.702;2023-07-20T00:23:08;17.60;99.90
25688;DHT22;17407;51.120;3.702;2023-07-20T00:25:34;17.60;99.90
25688;DHT22;17407;51.120;3.702;2023-07-20T00:28:00;17.50;99.90
25688;DHT22;17407;51.120;3.702;2023-07-20T00:30:26;17.40;99.90
25688;DHT22;17407;51.120;3.702;2023-07-20T00:32:52;17.40;99.90
25688;DHT22;17407;51.120;3.702;2023-07-20T00:35:18;17.50;99.90
25688;DHT22;17407;51.120;3.702;2023-07-20T00:37:43;17.40;99.90
25688;DHT22;17407;51.120;3.702;2023-07-20T00:40:09;17.40;99.90
25688;DHT22;17407;51.120;3.702;2023-07-20T00:42:35;17.20;99.90
25688;DHT22;17407;51.120;3.702;2023-07-20T00:45:01;17.10;99.90
25688;DHT22;17407;51.120;3.702;2023-07-20T00:47:27;17.20;99.90
25688;DHT22;17407;51.120;3.702;2023-07-20T00:49:53;17.10;99.90
25688;DHT22;17407;51.120;3.702;2023-07-20T00:52:20;17.10;99.90
25688;DHT22;17407;51.120;3.702;2023-07-20T00:54:47;17.10;99.90
25688;DHT22;17407;51.120;3.702;2023-07-20T00:57:15;17.10;99.90
25688;DHT22;17407;51.120;3.702;2023-07-20T00:59:41;17.00;99.90
25688;DHT22;17407;51.120;3.702;2023-07-20T01:02:07;16.90;99.90
25688;DHT22;17407;51.120;3.702;2023-07-20T01:04:33;17.00;99.90
25688;DHT22;17407;51.120;3.702;2023-07-20T01:07:06;17.00;99.90
25688;DHT22;17407;51.120;3.702;2023-07-20T01:09:54;17.00;99.90
25688;DHT22;17407;51.120;3.702;2023-07-20T01:12:33;16.90;99.90
25688;DHT22;17407;51.120;3.702;2023-07-20T01:15:01;16.80;99.90
25688;DHT22;17407;51.120;3.702;2023-07-20T01:17:27;16.80;99.90
25688;DHT22;17407;51.120;3.702;2023-07-20T01:19:53;16.70;99.90
25688;DHT22;17407;51.120;3.702;2023-07-20T01:23:03;16.70;99.90
25688;DHT22;17407;51.120;3.702;2023-07-20T01:28:35;16.60;99.90
25688;DHT22;17407;51.120;3.702;2023-07-20T01:31:27;16.60;99.90
25688;DHT22;17407;51.120;3.702;2023-07-20T01:34:00;16.70;99.90
25688;DHT22;17407;51.120;3.702;2023-07-20T01:36:30;16.50;99.90
25688;DHT22;17407;51.120;3.702;2023-07-20T01:38:56;16.50;99.90
25688;DHT22;17407;51.120;3.702;2023-07-20T01:41:23;16.60;99.90
25688;DHT22;17407;51.120;3.702;2023-07-20T01:43:48;16.60;99.90
25688;DHT22;17407;51.120;3.702;2023-07-20T01:46:14;16.50;99.90
25688;DHT22;17407;51.120;3.702;2023-07-20T01:48:40;16.50;99.90
25688;DHT22;17407;51.120;3.702;2023-07-20T01:51:05;16.50;99.90
25688;DHT22;17407;51.120;3.702;2023-07-20T01:53:31;16.40;99.90
25688;DHT22;17407;51.120;3.702;2023-07-20T01:55:57;16.30;99.90
25688;DHT22;17407;51.120;3.702;2023-07-20T01:58:22;16.30;99.90
25688;DHT22;17407;51.120;3.702;2023-07-20T02:00:48;16.30;99.90
25688;DHT22;17407;51.120;3.702;2023-07-20T02:03:14;16.40;99.90
25688;DHT22;17407;51.120;3.702;2023-07-20T02:05:42;16.30;99.90
25688;DHT22;17407;51.120;3.702;2023-07-20T02:08:08;16.20;99.90
25688;DHT22;17407;51.120;3.702;2023-07-20T02:10:34;16.20;99.90
25688;DHT22;17407;51.120;3.702;2023-07-20T02:13:00;16.30;99.90
25688;DHT22;17407;51.120;3.702;2023-07-20T02:15:26;16.30;99.90
25688;DHT22;17407;51.120;3.702;2023-07-20T02:17:53;16.40;99.90
25688;DHT22;17407;51.120;3.702;2023-07-20T02:20:18;16.40;99.90
25688;DHT22;17407;51.120;3.702;2023-07-20T02:22:44;16.50;99.90
25688;DHT22;17407;51.120;3.702;2023-07-20T02:25:10;16.50;99.90
25688;DHT22;17407;51.120;3.702;2023-07-20T02:27:37;16.30;99.90
25688;DHT22;17407;51.120;3.702;2023-07-20T02:30:03;16.30;99.90
25688;DHT22;17407;51.120;3.702;2023-07-20T02:32:30;16.20;99.90
25688;DHT22;17407;51.120;3.702;2023-07-20T02:34:55;16.20;99.90
25688;DHT22;17407;51.120;3.702;2023-07-20T02:37:21;16.20;99.90
25688;DHT22;17407;51.120;3.702;2023-07-20T02:39:47;16.30;99.90
25688;DHT22;17407;51.120;3.702;2023-07-20T02:42:12;16.40;99.90
25688;DHT22;17407;51.120;3.702;2023-07-20T02:44:38;16.40;99.90
25688;DHT22;17407;51.120;3.702;2023-07-20T02:47:04;16.30;99.90
25688;DHT22;17407;51.120;3.702;2023-07-20T02:49:30;16.30;99.90
25688;DHT22;17407;51.120;3.702;2023-07-20T02:51:55;16.30;99.90
25688;DHT22;17407;51.120;3.702;2023-07-20T02:54:21;16.40;99.90
25688;DHT22;17407;51.120;3.702;2023-07-20T02:56:46;16.40;99.90
25688;DHT22;17407;51.120;3.702;2023-07-20T02:59:12;16.50;99.90
25688;DHT22;17407;51.120;3.702;2023-07-20T03:01:38;16.50;99.90
25688;DHT22;17407;51.120;3.702;2023-07-20T03:04:04;16.40;99.90
25688;DHT22;17407;51.120;3.702;2023-07-20T03:06:29;16.40;99.90
25688;DHT22;17407;51.120;3.702;2023-07-20T03:08:55;16.40;99.90
25688;DHT22;17407;51.120;3.702;2023-07-20T03:11:21;16.50;99.90
25688;DHT22;17407;51.120;3.702;2023-07-20T03:13:47;16.40;99.90
25688;DHT22;17407;51.120;3.702;2023-07-20T03:16:17;16.40;99.90
25688;DHT22;17407;51.120;3.702;2023-07-20T03:18:43;16.30;99.90
25688;DHT22;17407;51.120;3.702;2023-07-20T03:21:09;16.40;99.90
25688;DHT22;17407;51.120;3.702;2023-07-20T03:23:39;16.50;99.90
25688;DHT22;17407;51.120;3.702;2023-07-20T03:26:05;16.50;99.90
25688;DHT22;17407;51.120;3.702;2023-07-20T03:28:36;16.40;99.90
25688;DHT22;17407;51.120;3.702;2023-07-20T03:31:03;16.30;99.90
25688;DHT22;17407;51.120;3.702;2023-07-20T03:33:29;16.40;99.90
25688;DHT22;17407;51.120;3.702;2023-07-20T03:35:56;16.40;99.90
25688;DHT22;17407;51.120;3.702;2023-07-20T03:38:22;16.50;99.90
25688;DHT22;17407;51.120;3.702;2023-07-20T03:40:52;16.50;99.90
25688;DHT22;17407;51.120;3.702;2023-07-20T03:43:18;16.40;99.90
25688;DHT22;17407;51.120;3.702;2023-07-20T03:45:44;16.40;99.90
25688;DHT22;17407;51.120;3.702;2023-07-20T03:48:11;16.40;99.90
25688;DHT22;17407;51.120;3.702;2023-07-20T03:50:37;16.40;99.90
25688;DHT22;17407;51.120;3.702;2023-07-20T03:53:02;16.40;99.90
25688;DHT22;17407;51.120;3.702;2023-07-20T03:55:28;16.40;99.90
25688;DHT22;17407;51.120;3.702;2023-07-20T03:57:54;16.50;99.90
25688;DHT22;17407;51.120;3.702;2023-07-20T04:00:19;16.50;99.90
25688;DHT22;17407;51.120;3.702;2023-07-20T04:02:45;16.60;99.90
25688;DHT22;17407;51.120;3.702;2023-07-20T04:05:11;16.50;99.90
25688;DHT22;17407;51.120;3.702;2023-07-20T04:07:36;16.60;99.90
25688;DHT22;17407;51.120;3.702;2023-07-20T04:10:02;16.60;99.90
25688;DHT22;17407;51.120;3.702;2023-07-20T04:12:28;16.60;99.90
25688;DHT22;17407;51.120;3.702;2023-07-20T04:14:54;16.60;99.90
25688;DHT22;17407;51.120;3.702;2023-07-20T04:17:19;16.60;99.90
25688;DHT22;17407;51.120;3.702;2023-07-20T04:19:45;16.60;99.90
25688;DHT22;17407;51.120;3.702;2023-07-20T04:22:10;16.60;99.90
25688;DHT22;17407;51.120;3.702;2023-07-20T04:24:36;16.60;99.90
25688;DHT22;17407;51.120;3.702;2023-07-20T04:27:02;16.60;99.90
25688;DHT22;17407;51.120;3.702;2023-07-20T04:29:28;16.60;99.90
25688;DHT22;17407;51.120;3.702;2023-07-20T04:31:53;16.70;99.90
25688;DHT22;17407;51.120;3.702;2023-07-20T04:34:19;16.80;99.90
25688;DHT22;17407;51.120;3.702;2023-07-20T04:36:44;16.80;99.90
25688;DHT22;17407;51.120;3.702;2023-07-20T04:39:10;16.80;99.90
25688;DHT22;17407;51.120;3.702;2023-07-20T04:41:37;16.90;99.90
25688;DHT22;17407;51.120;3.702;2023-07-20T04:44:02;16.80;99.90
25688;DHT22;17407;51.120;3.702;2023-07-20T04:46:28;16.70;99.90
25688;DHT22;17407;51.120;3.702;2023-07-20T04:48:54;16.70;99.90
25688;DHT22;17407;51.120;3.702;2023-07-20T04:51:19;16.70;99.90
25688;DHT22;17407;51.120;3.702;2023-07-20T04:53:49;16.70;99.90
25688;DHT22;17407;51.120;3.702;2023-07-20T04:56:15;16.80;99.90
25688;DHT22;17407;51.120;3.702;2023-07-20T04:58:40;16.90;99.90
25688;DHT22;17407;51.120;3.702;2023-07-20T05:01:07;16.90;99.90
25688;DHT22;17407;51.120;3.702;2023-07-20T05:03:33;17.00;99.90
25688;DHT22;17407;51.120;3.702;2023-07-20T05:05:59;17.10;99.90
25688;DHT22;17407;51.120;3.702;2023-07-20T05:08:24;17.10;99.90
25688;DHT22;17407;51.120;3.702;2023-07-20T05:10:50;17.20;99.90
25688;DHT22;17407;51.120;3.702;2023-07-20T05:13:16;17.20;99.90
25688;DHT22;17407;51.120;3.702;2023-07-20T05:15:42;17.20;99.90
25688;DHT22;17407;51.120;3.702;2023-07-20T05:18:08;17.30;99.90
25688;DHT22;17407;51.120;3.702;2023-07-20T05:20:37;17.30;99.90
25688;DHT22;17407;51.120;3.702;2023-07-20T05:23:02;17.40;99.90
25688;DHT22;17407;51.120;3.702;2023-07-20T05:25:28;17.50;99.90
25688;DHT22;17407;51.120;3.702;2023-07-20T05:27:54;17.50;99.90
25688;DHT22;17407;51.120;3.702;2023-07-20T05:30:21;17.50;99.90
25688;DHT22;17407;51.120;3.702;2023-07-20T05:32:46;17.50;99.90
25688;DHT22;17407;51.120;3.702;2023-07-20T05:35:17;17.60;99.90
25688;DHT22;17407;51.120;3.702;2023-07-20T05:37:43;17.70;99.90
25688;DHT22;17407;51.120;3.702;2023-07-20T05:40:09;17.70;99.90
25688;DHT22;17407;51.120;3.702;2023-07-20T05:42:37;17.80;99.90
25688;DHT22;17407;51.120;3.702;2023-07-20T05:45:03;18.00;99.90
25688;DHT22;17407;51.120;3.702;2023-07-20T05:47:29;18.00;99.90
25688;DHT22;17407;51.120;3.702;2023-07-20T05:49:55;18.00;99.90
25688;DHT22;17407;51.120;3.702;2023-07-20T05:52:20;18.00;99.90
25688;DHT22;17407;51.120;3.702;2023-07-20T05:54:46;18.00;99.90
25688;DHT22;17407;51.120;3.702;2023-07-20T05:57:12;18.10;99.90
25688;DHT22;17407;51.120;3.702;2023-07-20T05:59:37;18.20;99.90
25688;DHT22;17407;51.120;3.702;2023-07-20T06:02:06;18.40;99.90
25688;DHT22;17407;51.120;3.702;2023-07-20T06:04:33;18.50;99.90
25688;DHT22;17407;51.120;3.702;2023-07-20T06:06:59;18.60;99.90
25688;DHT22;17407;51.120;3.702;2023-07-20T06:09:25;18.70;99.90
25688;DHT22;17407;51.120;3.702;2023-07-20T06:11:50;18.70;99.90
25688;DHT22;17407;51.120;3.702;2023-07-20T06:14:16;18.90;99.90
25688;DHT22;17407;51.120;3.702;2023-07-20T06:16:41;18.90;99.90
25688;DHT22;17407;51.120;3.702;2023-07-20T06:19:07;19.10;99.90
25688;DHT22;17407;51.120;3.702;2023-07-20T06:21:33;19.10;99.90
25688;DHT22;17407;51.120;3.702;2023-07-20T06:23:58;19.10;99.90
25688;DHT22;17407;51.120;3.702;2023-07-20T06:26:24;19.30;99.90
25688;DHT22;17407;51.120;3.702;2023-07-20T06:28:50;19.40;99.90
25688;DHT22;17407;51.120;3.702;2023-07-20T06:31:17;19.60;99.90
25688;DHT22;17407;51.120;3.702;2023-07-20T06:33:43;19.70;99.90
25688;DHT22;17407;51.120;3.702;2023-07-20T06:36:10;19.70;99.90
25688;DHT22;17407;51.120;3.702;2023-07-20T06:38:36;19.90;99.90
25688;DHT22;17407;51.120;3.702;2023-07-20T06:41:02;20.00;99.90
25688;DHT22;17407;51.120;3.702;2023-07-20T06:43:27;20.10;99.90
25688;DHT22;17407;51.120;3.702;2023-07-20T06:45:57;20.10;99.90
25688;DHT22;17407;51.120;3.702;2023-07-20T06:48:22;20.30;99.90
25688;DHT22;17407;51.120;3.702;2023-07-20T06:50:48;20.40;99.90
25688;DHT22;17407;51.120;3.702;2023-07-20T06:53:13;20.50;99.90
25688;DHT22;17407;51.120;3.702;2023-07-20T06:55:41;20.50;99.90
25688;DHT22;17407;51.120;3.702;2023-07-20T06:58:07;20.80;99.90
25688;DHT22;17407;51.120;3.702;2023-07-20T07:00:32;21.00;99.90
25688;DHT22;17407;51.120;3.702;2023-07-20T07:02:58;21.10;99.90
25688;DHT22;17407;51.120;3.702;2023-07-20T07:05:23;21.40;99.90
25688;DHT22;17407;51.120;3.702;2023-07-20T07:07:49;21.50;99.90
25688;DHT22;17407;51.120;3.702;2023-07-20T07:10:15;21.70;99.90
25688;DHT22;17407;51.120;3.702;2023-07-20T07:12:40;21.80;99.90
25688;DHT22;17407;51.120;3.702;2023-07-20T07:15:06;21.80;99.90
25688;DHT22;17407;51.120;3.702;2023-07-20T07:17:32;22.00;99.90
25688;DHT22;17407;51.120;3.702;2023-07-20T07:19:58;22.10;99.90
25688;DHT22;17407;51.120;3.702;2023-07-20T07:22:24;22.20;99.90
25688;DHT22;17407;51.120;3.702;2023-07-20T07:24:50;22.20;99.90
25688;DHT22;17407;51.120;3.702;2023-07-20T07:27:16;22.30;99.90
25688;DHT22;17407;51.120;3.702;2023-07-20T07:29:42;22.50;99.90
25688;DHT22;17407;51.120;3.702;2023-07-20T07:32:10;22.50;99.90
25688;DHT22;17407;51.120;3.702;2023-07-20T07:34:36;22.50;99.90
25688;DHT22;17407;51.120;3.702;2023-07-20T07:37:03;22.60;99.90
25688;DHT22;17407;51.120;3.702;2023-07-20T07:39:29;22.60;99.90
25688;DHT22;17407;51.120;3.702;2023-07-20T07:41:56;22.60;99.90
25688;DHT22;17407;51.120;3.702;2023-07-20T07:44:21;22.70;99.90
25688;DHT22;17407;51.120;3.702;2023-07-20T07:46:47;22.90;99.90
25688;DHT22;17407;51.120;3.702;2023-07-20T07:49:13;23.10;99.90
25688;DHT22;17407;51.120;3.702;2023-07-20T07:51:38;23.20;99.90
25688;DHT22;17407;51.120;3.702;2023-07-20T07:54:04;23.30;99.90
25688;DHT22;17407;51.120;3.702;2023-07-20T07:56:30;23.50;99.90
25688;DHT22;17407;51.120;3.702;2023-07-20T07:58:55;23.60;99.90
25688;DHT22;17407;51.120;3.702;2023-07-20T08:01:21;23.60;99.90
25688;DHT22;17407;51.120;3.702;2023-07-20T08:03:47;23.80;99.90
25688;DHT22;17407;51.120;3.702;2023-07-20T08:06:13;24.00;99.90
25688;DHT22;17407;51.120;3.702;2023-07-20T08:08:40;24.00;99.90
25688;DHT22;17407;51.120;3.702;2023-07-20T08:11:05;24.00;99.90
25688;DHT22;17407;51.120;3.702;2023-07-20T08:13:31;24.20;99.90
25688;DHT22;17407;51.120;3.702;2023-07-20T08:15:58;24.40;99.90
25688;DHT22;17407;51.120;3.702;2023-07-20T08:18:23;24.60;99.90
25688;DHT22;17407;51.120;3.702;2023-07-20T08:20:49;24.50;99.90
25688;DHT22;17407;51.120;3.702;2023-07-20T08:23:15;24.60;99.90
25688;DHT22;17407;51.120;3.702;2023-07-20T08:25:41;24.60;99.90
25688;DHT22;17407;51.120;3.702;2023-07-20T08:28:14;24.80;99.90
25688;DHT22;17407;51.120;3.702;2023-07-20T08:30:45;25.00;99.90
25688;DHT22;17407;51.120;3.702;2023-07-20T08:33:12;25.50;99.90
25688;DHT22;17407;51.120;3.702;2023-07-20T08:35:38;25.70;99.90
25688;DHT22;17407;51.120;3.702;2023-07-20T08:38:04;25.80;99.90
25688;DHT22;17407;51.120;3.702;2023-07-20T08:40:35;25.90;99.90
25688;DHT22;17407;51.120;3.702;2023-07-20T08:43:04;25.70;99.90
25688;DHT22;17407;51.120;3.702;2023-07-20T08:45:34;25.50;99.90
25688;DHT22;17407;51.120;3.702;2023-07-20T08:48:02;25.40;99.90
25688;DHT22;17407;51.120;3.702;2023-07-20T08:50:30;25.30;99.90
25688;DHT22;17407;51.120;3.702;2023-07-20T08:52:57;25.40;99.90
25688;DHT22;17407;51.120;3.702;2023-07-20T08:55:25;25.50;99.90
25688;DHT22;17407;51.120;3.702;2023-07-20T08:57:53;25.60;99.90
25688;DHT22;17407;51.120;3.702;2023-07-20T09:00:20;25.60;99.90
25688;DHT22;17407;51.120;3.702;2023-07-20T09:02:48;25.80;99.90
25688;DHT22;17407;51.120;3.702;2023-07-20T09:05:14;26.00;99.90
25688;DHT22;17407;51.120;3.702;2023-07-20T09:07:40;26.00;99.90
25688;DHT22;17407;51.120;3.702;2023-07-20T09:10:07;26.00;99.90
25688;DHT22;17407;51.120;3.702;2023-07-20T09:12:37;26.10;99.90
25688;DHT22;17407;51.120;3.702;2023-07-20T09:15:04;26.30;99.90
25688;DHT22;17407;51.120;3.702;2023-07-20T09:17:30;26.10;99.90
25688;DHT22;17407;51.120;3.702;2023-07-20T09:19:56;25.80;99.90
25688;DHT22;17407;51.120;3.702;2023-07-20T09:22:22;25.70;99.90
25688;DHT22;17407;51.120;3.702;2023-07-20T09:24:47;25.60;99.90
25688;DHT22;17407;51.120;3.702;2023-07-20T09:27:13;25.50;99.90
25688;DHT22;17407;51.120;3.702;2023-07-20T09:29:48;25.50;99.90
25688;DHT22;17407;51.120;3.702;2023-07-20T09:32:21;25.80;99.90
25688;DHT22;17407;51.120;3.702;2023-07-20T09:34:48;26.00;99.90
25688;DHT22;17407;51.120;3.702;2023-07-20T09:37:22;26.30;99.90
25688;DHT22;17407;51.120;3.702;2023-07-20T09:39:51;26.50;99.90
25688;DHT22;17407;51.120;3.702;2023-07-20T09:42:18;26.70;99.90
25688;DHT22;17407;51.120;3.702;2023-07-20T09:44:46;26.90;99.90
25688;DHT22;17407;51.120;3.702;2023-07-20T09:47:12;26.60;99.90
25688;DHT22;17407;51.120;3.702;2023-07-20T09:49:41;26.50;99.90
25688;DHT22;17407;51.120;3.702;2023-07-20T09:52:08;26.40;99.90
25688;DHT22;17407;51.120;3.702;2023-07-20T09:54:37;26.50;99.90
25688;DHT22;17407;51.120;3.702;2023-07-20T09:57:04;26.20;99.90
25688;DHT22;17407;51.120;3.702;2023-07-20T09:59:32;26.30;99.90
25688;DHT22;17407;51.120;3.702;2023-07-20T10:01:58;26.20;99.90
25688;DHT22;17407;51.120;3.702;2023-07-20T10:04:26;26.10;99.90
25688;DHT22;17407;51.120;3.702;2023-07-20T10:06:55;25.70;99.90
25688;DHT22;17407;51.120;3.702;2023-07-20T10:09:22;25.50;99.90
25688;DHT22;17407;51.120;3.702;2023-07-20T10:11:53;25.70;99.90
25688;DHT22;17407;51.120;3.702;2023-07-20T10:14:22;25.80;99.90
25688;DHT22;17407;51.120;3.702;2023-07-20T10:16:57;26.20;99.90
25688;DHT22;17407;51.120;3.702;2023-07-20T10:19:29;26.30;99.90
25688;DHT22;17407;51.120;3.702;2023-07-20T10:22:12;26.30;99.90
25688;DHT22;17407;51.120;3.702;2023-07-20T10:24:39;26.20;99.90
25688;DHT22;17407;51.120;3.702;2023-07-20T10:27:06;26.50;99.90
25688;DHT22;17407;51.120;3.702;2023-07-20T10:29:32;26.80;99.90
25688;DHT22;17407;51.120;3.702;2023-07-20T10:31:59;26.90;99.90
25688;DHT22;17407;51.120;3.702;2023-07-20T10:34:25;27.00;99.90
25688;DHT22;17407;51.120;3.702;2023-07-20T10:36:51;27.00;99.90
25688;DHT22;17407;51.120;3.702;2023-07-20T10:39:24;27.00;99.90
25688;DHT22;17407;51.120;3.702;2023-07-20T10:41:50;27.10;99.90
25688;DHT22;17407;51.120;3.702;2023-07-20T10:44:19;26.90;99.90
25688;DHT22;17407;51.120;3.702;2023-07-20T10:46:46;27.00;99.90
25688;DHT22;17407;51.120;3.702;2023-07-20T10:49:13;26.80;99.90
25688;DHT22;17407;51.120;3.702;2023-07-20T10:51:41;26.80;99.90
25688;DHT22;17407;51.120;3.702;2023-07-20T10:56:55;26.70;99.90
25688;DHT22;17407;51.120;3.702;2023-07-20T11:01:54;26.70;99.90
25688;DHT22;17407;51.120;3.702;2023-07-20T11:07:03;26.50;99.90
25688;DHT22;17407;51.120;3.702;2023-07-20T11:09:34;26.40;99.90
25688;DHT22;17407;51.120;3.702;2023-07-20T11:12:29;26.40;99.90
25688;DHT22;17407;51.120;3.702;2023-07-20T11:14:56;26.40;99.90
25688;DHT22;17407;51.120;3.702;2023-07-20T11:17:32;26.30;99.90
25688;DHT22;17407;51.120;3.702;2023-07-20T11:19:59;26.30;99.90
25688;DHT22;17407;51.120;3.702;2023-07-20T11:22:26;26.20;99.90
25688;DHT22;17407;51.120;3.702;2023-07-20T11:24:55;26.00;99.90
25688;DHT22;17407;51.120;3.702;2023-07-20T11:27:21;25.90;99.90
25688;DHT22;17407;51.120;3.702;2023-07-20T11:29:50;25.60;99.90
25688;DHT22;17407;51.120;3.702;2023-07-20T11:32:22;25.60;99.90
25688;DHT22;17407;51.120;3.702;2023-07-20T11:34:47;25.50;99.90
25688;DHT22;17407;51.120;3.702;2023-07-20T11:37:13;25.40;99.90
25688;DHT22;17407;51.120;3.702;2023-07-20T11:39:39;25.40;99.90
25688;DHT22;17407;51.120;3.702;2023-07-20T11:42:05;25.50;99.90
25688;DHT22;17407;51.120;3.702;2023-07-20T11:44:32;25.60;99.90
25688;DHT22;17407;51.120;3.702;2023-07-20T11:47:04;25.70;99.90
25688;DHT22;17407;51.120;3.702;2023-07-20T11:49:34;25.60;99.90
25688;DHT22;17407;51.120;3.702;2023-07-20T11:52:01;25.60;99.90
25688;DHT22;17407;51.120;3.702;2023-07-20T11:54:27;25.70;99.90
25688;DHT22;17407;51.120;3.702;2023-07-20T11:56:56;25.80;99.90
25688;DHT22;17407;51.120;3.702;2023-07-20T11:59:22;25.80;99.90
25688;DHT22;17407;51.120;3.702;2023-07-20T12:01:47;25.80;99.90
25688;DHT22;17407;51.120;3.702;2023-07-20T12:04:13;25.90;99.90
25688;DHT22;17407;51.120;3.702;2023-07-20T12:06:39;25.90;99.90
25688;DHT22;17407;51.120;3.702;2023-07-20T12:09:04;25.80;99.90
25688;DHT22;17407;51.120;3.702;2023-07-20T12:11:37;25.80;99.90
25688;DHT22;17407;51.120;3.702;2023-07-20T12:14:07;25.80;99.90
25688;DHT22;17407;51.120;3.702;2023-07-20T12:16:33;25.70;99.90
25688;DHT22;17407;51.120;3.702;2023-07-20T12:19:04;25.70;99.90
25688;DHT22;17407;51.120;3.702;2023-07-20T12:21:30;26.00;99.90
25688;DHT22;17407;51.120;3.702;2023-07-20T12:23:58;26.10;99.90
25688;DHT22;17407;51.120;3.702;2023-07-20T12:26:24;26.50;99.90
25688;DHT22;17407;51.120;3.702;2023-07-20T12:28:51;26.80;99.90
25688;DHT22;17407;51.120;3.702;2023-07-20T12:31:17;27.20;99.90
25688;DHT22;17407;51.120;3.702;2023-07-20T12:33:42;27.50;99.90
25688;DHT22;17407;51.120;3.702;2023-07-20T12:36:09;27.60;99.40
25688;DHT22;17407;51.120;3.702;2023-07-20T12:38:35;27.50;99.10
25688;DHT22;17407;51.120;3.702;2023-07-20T12:41:02;27.40;99.90
25688;DHT22;17407;51.120;3.702;2023-07-20T12:43:28;27.50;99.90
25688;DHT22;17407;51.120;3.702;2023-07-20T12:45:55;27.60;99.20
25688;DHT22;17407;51.120;3.702;2023-07-20T12:48:21;27.50;98.10
25688;DHT22;17407;51.120;3.702;2023-07-20T12:50:47;27.40;98.40
25688;DHT22;17407;51.120;3.702;2023-07-20T12:53:12;27.30;98.20
25688;DHT22;17407;51.120;3.702;2023-07-20T12:55:38;27.20;99.30
25688;DHT22;17407;51.120;3.702;2023-07-20T12:58:05;27.30;99.60
25688;DHT22;17407;51.120;3.702;2023-07-20T13:00:31;26.80;98.50
25688;DHT22;17407;51.120;3.702;2023-07-20T13:02:57;26.70;98.10
25688;DHT22;17407;51.120;3.702;2023-07-20T13:05:23;26.60;98.40
25688;DHT22;17407;51.120;3.702;2023-07-20T13:07:49;26.60;98.90
25688;DHT22;17407;51.120;3.702;2023-07-20T13:10:15;26.70;98.30
25688;DHT22;17407;51.120;3.702;2023-07-20T13:12:41;26.90;98.10
25688;DHT22;17407;51.120;3.702;2023-07-20T13:15:08;26.90;98.00
25688;DHT22;17407;51.120;3.702;2023-07-20T13:17:37;26.70;99.10
25688;DHT22;17407;51.120;3.702;2023-07-20T13:20:09;26.70;99.50
25688;DHT22;17407;51.120;3.702;2023-07-20T13:22:36;26.60;99.90
25688;DHT22;17407;51.120;3.702;2023-07-20T13:25:02;26.50;99.90
25688;DHT22;17407;51.120;3.702;2023-07-20T13:27:27;26.40;99.90
25688;DHT22;17407;51.120;3.702;2023-07-20T13:29:53;26.30;99.90
25688;DHT22;17407;51.120;3.702;2023-07-20T13:32:19;26.00;99.90
25688;DHT22;17407;51.120;3.702;2023-07-20T13:34:45;26.00;99.90
25688;DHT22;17407;51.120;3.702;2023-07-20T13:37:11;25.90;99.90
25688;DHT22;17407;51.120;3.702;2023-07-20T13:39:37;25.70;99.90
25688;DHT22;17407;51.120;3.702;2023-07-20T13:42:04;25.50;99.90
25688;DHT22;17407;51.120;3.702;2023-07-20T13:44:34;25.00;99.90
25688;DHT22;17407;51.120;3.702;2023-07-20T13:47:01;24.60;99.90
25688;DHT22;17407;51.120;3.702;2023-07-20T13:49:27;24.00;99.90
25688;DHT22;17407;51.120;3.702;2023-07-20T13:51:53;23.70;99.90
25688;DHT22;17407;51.120;3.702;2023-07-20T13:54:18;23.50;99.90
25688;DHT22;17407;51.120;3.702;2023-07-20T13:56:44;23.40;99.90
25688;DHT22;17407;51.120;3.702;2023-07-20T13:59:10;23.20;99.90
25688;DHT22;17407;51.120;3.702;2023-07-20T14:01:35;23.00;99.90
25688;DHT22;17407;51.120;3.702;2023-07-20T14:04:02;22.80;99.90
25688;DHT22;17407;51.120;3.702;2023-07-20T14:06:30;22.70;99.90
25688;DHT22;17407;51.120;3.702;2023-07-20T14:08:56;22.60;99.90
25688;DHT22;17407;51.120;3.702;2023-07-20T14:11:23;22.50;99.90
25688;DHT22;17407;51.120;3.702;2023-07-20T14:13:50;22.40;99.90
25688;DHT22;17407;51.120;3.702;2023-07-20T14:16:16;22.10;99.90
25688;DHT22;17407;51.120;3.702;2023-07-20T14:18:42;22.10;99.90
25688;DHT22;17407;51.120;3.702;2023-07-20T14:21:08;22.10;99.90
25688;DHT22;17407;51.120;3.702;2023-07-20T14:23:34;22.00;99.90
25688;DHT22;17407;51.120;3.702;2023-07-20T14:26:01;22.00;99.90
25688;DHT22;17407;51.120;3.702;2023-07-20T14:28:30;22.00;99.90
25688;DHT22;17407;51.120;3.702;2023-07-20T14:30:57;22.00;99.90
25688;DHT22;17407;51.120;3.702;2023-07-20T14:33:23;22.00;99.90
25688;DHT22;17407;51.120;3.702;2023-07-20T14:35:49;22.00;99.90
25688;DHT22;17407;51.120;3.702;2023-07-20T14:38:14;21.80;99.90
25688;DHT22;17407;51.120;3.702;2023-07-20T14:40:40;21.80;99.90
25688;DHT22;17407;51.120;3.702;2023-07-20T14:43:06;21.80;99.90
25688;DHT22;17407;51.120;3.702;2023-07-20T14:45:32;21.90;99.90
25688;DHT22;17407;51.120;3.702;2023-07-20T14:47:58;21.90;99.90
25688;DHT22;17407;51.120;3.702;2023-07-20T14:50:24;22.00;99.90
25688;DHT22;17407;51.120;3.702;2023-07-20T14:52:50;22.00;99.90
25688;DHT22;17407;51.120;3.702;2023-07-20T14:55:16;22.10;99.90
25688;DHT22;17407;51.120;3.702;2023-07-20T14:57:42;22.20;99.90
25688;DHT22;17407;51.120;3.702;2023-07-20T15:00:08;22.20;99.90
25688;DHT22;17407;51.120;3.702;2023-07-20T15:02:39;22.20;99.90
25688;DHT22;17407;51.120;3.702;2023-07-20T15:05:08;22.20;99.90
25688;DHT22;17407;51.120;3.702;2023-07-20T15:07:35;22.00;99.90
25688;DHT22;17407;51.120;3.702;2023-07-20T15:10:01;21.90;99.90
25688;DHT22;17407;51.120;3.702;2023-07-20T15:12:27;22.00;99.90
25688;DHT22;17407;51.120;3.702;2023-07-20T15:15:05;22.00;99.90
25688;DHT22;17407;51.120;3.702;2023-07-20T15:17:32;21.90;99.90
25688;DHT22;17407;51.120;3.702;2023-07-20T15:19:57;21.80;99.90
25688;DHT22;17407;51.120;3.702;2023-07-20T15:22:23;21.80;99.90
25688;DHT22;17407;51.120;3.702;2023-07-20T15:24:49;21.90;99.90
25688;DHT22;17407;51.120;3.702;2023-07-20T15:27:15;22.00;99.90
25688;DHT22;17407;51.120;3.702;2023-07-20T15:29:40;21.90;99.90
25688;DHT22;17407;51.120;3.702;2023-07-20T15:32:06;22.00;99.90
25688;DHT22;17407;51.120;3.702;2023-07-20T15:34:33;22.00;99.90
25688;DHT22;17407;51.120;3.702;2023-07-20T15:36:59;22.00;99.90
25688;DHT22;17407;51.120;3.702;2023-07-20T15:39:24;22.00;99.90